Time;durP1;ratioP1;P1;durP2;ratioP2;P2;SDS_P1;SDS_P2;PMS_P1;PMS_P2;Temp;Humidity;BMP_temperature;BMP_pressure;BME280_temperature;BME280_humidity;BME280_pressure;Samples;Min_cycle;Max_cycle;Signal;HPM_P1;HPM_P2
2022/10/05 00:02:16;;;;;;;10.40;7.15;;;;;;;;;;4974788;28;20105;-66
2022/10/05 00:04:42;;;;;;;9.27;6.30;;;;;;;;;;4960607;28;20459;-66
2022/10/05 00:07:12;;;;;;;9.73;6.18;;;;;;;;;;4974701;28;20458;-66
2022/10/05 00:09:38;;;;;;;10.85;5.90;;;;;;;;;;4972010;28;20051;-66
2022/10/05 00:12:12;;;;;;;9.63;5.45;;;;;;;;;;4973471;28;20078;-66
2022/10/05 00:14:38;;;;;;;;;;;;;;;;;;4977751;28;20046;-66
2022/10/05 00:17:05;;;;;;;8.20;4.75;;;;;;;;;;4974320;28;19936;-66
2022/10/05 00:19:33;;;;;;;9.07;4.85;;;;;;;;;;4975289;28;20038;-66
2022/10/05 00:22:02;;;;;;;7.40;4.65;;;;;;;;;;4977256;28;20043;-66
2022/10/05 00:24:29;;;;;;;7.53;4.30;;;;;;;;;;4974124;28;20054;-66
2022/10/05 00:26:55;;;;;;;7.85;4.57;;;;;;;;;;4974705;28;20046;-66
2022/10/05 00:29:22;;;;;;;8.55;4.43;;;;;;;;;;4972283;28;20057;-66
2022/10/05 00:31:49;;;;;;;8.48;4.68;;;;;;;;;;4973391;28;20042;-66
2022/10/05 00:34:16;;;;;;;8.18;5.05;;;;;;;;;;4975156;28;20046;-66
2022/10/05 00:36:42;;;;;;;10.70;5.05;;;;;;;;;;4976746;28;20061;-66
2022/10/05 00:39:09;;;;;;;7.78;4.38;;;;;;;;;;4978323;28;20045;-66
2022/10/05 00:41:35;;;;;;;9.43;4.82;;;;;;;;;;4976422;28;20137;-66
2022/10/05 00:44:12;;;;;;;8.95;4.35;;;;;;;;;;4974688;28;20120;-66
2022/10/05 00:46:46;;;;;;;10.00;4.65;;;;;;;;;;4972874;28;20145;-66
2022/10/05 00:49:20;;;;;;;8.05;4.47;;;;;;;;;;4976896;28;20165;-66
2022/10/05 00:51:51;;;;;;;8.57;4.68;;;;;;;;;;4975482;28;20073;-66
2022/10/05 00:54:27;;;;;;;8.00;4.32;;;;;;;;;;4974150;28;20097;-66
2022/10/05 00:57:02;;;;;;;8.60;5.22;;;;;;;;;;4976413;28;20046;-66
2022/10/05 00:59:28;;;;;;;6.93;4.45;;;;;;;;;;4977337;28;20069;-66
2022/10/05 01:02:02;;;;;;;7.82;4.40;;;;;;;;;;4975194;28;20070;-66
2022/10/05 01:04:32;;;;;;;6.63;4.07;;;;;;;;;;4977340;28;20038;-66
2022/10/05 01:06:59;;;;;;;7.63;4.05;;;;;;;;;;4976164;28;20050;-66
2022/10/05 01:09:44;;;;;;;7.72;3.90;;;;;;;;;;4973531;28;20062;-65
2022/10/05 01:12:16;;;;;;;7.88;4.20;;;;;;;;;;4972552;28;20038;-66
2022/10/05 01:14:49;;;;;;;6.43;3.72;;;;;;;;;;4977049;28;20367;-66
2022/10/05 01:17:19;;;;;;;7.15;3.92;;;;;;;;;;4978153;28;20050;-66
2022/10/05 01:19:46;;;;;;;6.60;4.10;;;;;;;;;;4974808;28;20082;-66
2022/10/05 01:22:12;;;;;;;8.88;3.67;;;;;;;;;;4974620;28;20489;-66
2022/10/05 01:24:49;;;;;;;7.72;4.38;;;;;;;;;;4975088;28;20055;-65
2022/10/05 01:27:28;;;;;;;8.25;4.25;;;;;;;;;;4971297;28;20041;-66
2022/10/05 01:29:59;;;;;;;9.35;4.95;;;;;;;;;;4974371;28;20065;-66
2022/10/05 01:32:33;;;;;;;8.77;5.15;;;;;;;;;;4970203;28;20053;-66
2022/10/05 01:35:12;;;;;;;9.35;5.15;;;;;;;;;;4975311;28;21771;-66
2022/10/05 01:37:52;;;;;;;10.82;5.70;;;;;;;;;;4978868;28;20085;-66
2022/10/05 01:40:22;;;;;;;9.65;5.75;;;;;;;;;;4957234;28;20618;-66
2022/10/05 01:43:01;;;;;;;9.60;5.85;;;;;;;;;;4973582;28;20041;-66
2022/10/05 01:45:40;;;;;;;10.02;5.30;;;;;;;;;;4975728;28;20042;-66
2022/10/05 01:48:09;;;;;;;11.30;6.82;;;;;;;;;;4980630;28;20038;-65
2022/10/05 01:50:45;;;;;;;11.93;7.28;;;;;;;;;;4978493;28;20046;-66
2022/10/05 01:53:19;;;;;;;11.07;6.15;;;;;;;;;;4979752;28;20054;-66
2022/10/05 01:56:04;;;;;;;13.55;6.63;;;;;;;;;;4971282;28;20050;-66
2022/10/05 01:58:36;;;;;;;8.68;5.85;;;;;;;;;;4976174;28;20715;-66
2022/10/05 02:01:07;;;;;;;9.13;6.18;;;;;;;;;;4976758;28;20050;-66
2022/10/05 02:03:37;;;;;;;11.45;5.78;;;;;;;;;;4976889;28;20494;-66
2022/10/05 02:06:07;;;;;;;11.60;6.97;;;;;;;;;;4958429;28;20108;-66
2022/10/05 02:08:33;;;;;;;11.90;6.18;;;;;;;;;;4975871;28;20118;-66
2022/10/05 02:11:03;;;;;;;12.02;6.90;;;;;;;;;;4973524;28;20047;-66
2022/10/05 02:13:33;;;;;;;16.65;6.25;;;;;;;;;;4975930;28;20043;-66
2022/10/05 02:16:02;;;;;;;12.73;5.60;;;;;;;;;;4976014;28;20077;-65
2022/10/05 02:18:32;;;;;;;9.88;5.45;;;;;;;;;;4977333;28;20437;-65
2022/10/05 02:20:59;;;;;;;8.13;5.60;;;;;;;;;;4978979;28;20383;-65
2022/10/05 02:23:28;;;;;;;9.35;5.40;;;;;;;;;;4976251;28;20046;-66
2022/10/05 02:25:55;;;;;;;8.27;4.85;;;;;;;;;;4978389;28;20058;-66
2022/10/05 02:28:29;;;;;;;9.65;5.13;;;;;;;;;;4973376;28;20046;-66
2022/10/05 02:30:58;;;;;;;9.80;4.70;;;;;;;;;;4976647;28;20129;-66
2022/10/05 02:33:24;;;;;;;9.10;4.97;;;;;;;;;;4972334;28;20312;-67
2022/10/05 02:35:50;;;;;;;8.70;4.50;;;;;;;;;;4976268;28;20054;-66
2022/10/05 02:38:37;;;;;;;6.85;4.32;;;;;;;;;;4976460;28;20058;-67
2022/10/05 02:41:18;;;;;;;5.82;3.67;;;;;;;;;;4970136;28;20050;-67
2022/10/05 02:43:44;;;;;;;6.60;4.40;;;;;;;;;;4973241;28;20050;-67
2022/10/05 02:46:18;;;;;;;7.93;4.03;;;;;;;;;;4975581;28;20053;-65
2022/10/05 02:49:02;;;;;;;9.43;4.20;;;;;;;;;;4978711;28;20126;-65
2022/10/05 02:51:35;;;;;;;8.73;3.90;;;;;;;;;;4978094;28;20055;-65
2022/10/05 02:54:02;;;;;;;6.43;3.63;;;;;;;;;;4976009;28;20104;-65
2022/10/05 02:56:32;;;;;;;6.72;3.80;;;;;;;;;;4977757;28;21735;-66
2022/10/05 02:59:02;;;;;;;7.65;3.75;;;;;;;;;;4976135;28;20047;-64
2022/10/05 03:01:34;;;;;;;9.38;4.00;;;;;;;;;;4977273;28;20096;-65
2022/10/05 03:04:00;;;;;;;7.70;3.55;;;;;;;;;;4973259;28;20042;-66
2022/10/05 03:06:28;;;;;;;10.63;4.45;;;;;;;;;;4976236;28;20046;-66
2022/10/05 03:09:01;;;;;;;6.97;3.47;;;;;;;;;;4973643;28;20054;-66
2022/10/05 03:11:34;;;;;;;8.10;3.72;;;;;;;;;;4973910;28;20068;-65
2022/10/05 03:14:21;;;;;;;7.28;3.88;;;;;;;;;;4979844;28;20078;-65
2022/10/05 03:16:51;;;;;;;8.02;3.28;;;;;;;;;;4976962;28;20057;-64
2022/10/05 03:19:41;;;;;;;9.40;3.20;;;;;;;;;;4976851;28;20043;-66
2022/10/05 03:22:16;;;;;;;8.43;3.33;;;;;;;;;;4976241;28;20046;-65
2022/10/05 03:24:54;;;;;;;8.57;3.13;;;;;;;;;;4955478;28;21463;-65
2022/10/05 03:27:21;;;;;;;6.22;2.85;;;;;;;;;;4973402;28;20141;-65
2022/10/05 03:29:53;;;;;;;6.95;2.80;;;;;;;;;;4979520;28;20113;-65
2022/10/05 03:32:30;;;;;;;6.70;2.72;;;;;;;;;;4976729;28;20046;-65
2022/10/05 03:34:59;;;;;;;10.48;2.90;;;;;;;;;;4978616;28;21039;-65
2022/10/05 03:37:28;;;;;;;4.72;2.58;;;;;;;;;;4978625;28;20470;-65
2022/10/05 03:40:04;;;;;;;7.03;2.53;;;;;;;;;;4976476;28;20398;-65
2022/10/05 03:42:37;;;;;;;5.13;2.40;;;;;;;;;;4976672;28;21947;-65
2022/10/05 03:45:22;;;;;;;8.75;2.40;;;;;;;;;;4972925;28;20044;-65
2022/10/05 03:47:55;;;;;;;5.60;2.10;;;;;;;;;;4971197;28;20059;-65
2022/10/05 03:50:25;;;;;;;6.28;1.80;;;;;;;;;;4975388;28;20132;-65
2022/10/05 03:52:54;;;;;;;4.55;2.00;;;;;;;;;;4975654;28;20046;-65
2022/10/05 03:55:21;;;;;;;3.70;1.85;;;;;;;;;;4971511;28;20512;-65
2022/10/05 03:57:48;;;;;;;7.10;1.90;;;;;;;;;;4975785;28;20054;-65
2022/10/05 04:00:16;;;;;;;3.85;2.30;;;;;;;;;;4973969;28;20120;-66
2022/10/05 04:02:52;;;;;;;8.52;2.08;;;;;;;;;;4976674;28;20058;-65
2022/10/05 04:05:20;;;;;;;6.60;2.28;;;;;;;;;;4977046;28;20039;-65
2022/10/05 04:07:49;;;;;;;3.90;1.55;;;;;;;;;;4973632;28;20046;-65
2022/10/05 04:10:18;;;;;;;6.47;2.05;;;;;;;;;;4975553;28;20052;-65
2022/10/05 04:12:47;;;;;;;7.25;2.50;;;;;;;;;;4974772;28;20133;-65
2022/10/05 04:15:17;;;;;;;7.18;2.30;;;;;;;;;;4974146;28;20057;-65
2022/10/05 04:17:45;;;;;;;9.70;2.20;;;;;;;;;;4972687;28;20517;-65
2022/10/05 04:20:21;;;;;;;4.07;1.98;;;;;;;;;;4975368;28;20120;-65
2022/10/05 04:22:53;;;;;;;4.22;2.13;;;;;;;;;;4974775;28;20421;-65
2022/10/05 04:25:22;;;;;;;5.70;2.25;;;;;;;;;;4974371;28;20053;-65
2022/10/05 04:27:52;;;;;;;4.25;1.60;;;;;;;;;;4974150;28;20046;-65
2022/10/05 04:30:19;;;;;;;5.38;2.28;;;;;;;;;;4977819;28;20097;-65
2022/10/05 04:32:47;;;;;;;4.20;2.00;;;;;;;;;;4974841;28;20054;-66
2022/10/05 04:35:20;;;;;;;6.28;2.33;;;;;;;;;;4972092;28;20050;-65
2022/10/05 04:37:59;;;;;;;7.55;3.38;;;;;;;;;;4972372;28;20049;-65
2022/10/05 04:40:29;;;;;;;6.10;2.80;;;;;;;;;;4971797;28;20054;-67
2022/10/05 04:43:03;;;;;;;7.28;2.75;;;;;;;;;;4971571;28;20050;-65
2022/10/05 04:45:41;;;;;;;7.10;3.28;;;;;;;;;;4974116;28;20128;-65
2022/10/05 04:48:19;;;;;;;13.80;4.15;;;;;;;;;;4980768;28;20160;-65
2022/10/05 04:50:46;;;;;;;6.50;3.42;;;;;;;;;;4967558;28;20740;-65
2022/10/05 04:53:24;;;;;;;8.23;4.05;;;;;;;;;;4977417;28;21598;-65
2022/10/05 04:56:01;;;;;;;7.13;3.38;;;;;;;;;;4978367;28;20042;-65
2022/10/05 04:58:45;;;;;;;7.07;2.95;;;;;;;;;;4973299;28;20156;-65
2022/10/05 05:01:25;;;;;;;7.18;3.28;;;;;;;;;;4978876;28;20046;-66
2022/10/05 05:04:02;;;;;;;10.15;3.00;;;;;;;;;;4981737;28;20058;-66
2022/10/05 05:06:34;;;;;;;8.90;2.92;;;;;;;;;;4981180;28;20082;-66
2022/10/05 05:09:01;;;;;;;7.72;3.28;;;;;;;;;;4979772;28;20058;-66
2022/10/05 05:11:34;;;;;;;5.85;3.13;;;;;;;;;;4983226;28;20145;-66
2022/10/05 05:14:16;;;;;;;12.57;3.42;;;;;;;;;;4965264;28;20533;-65
2022/10/05 05:16:43;;;;;;;7.32;3.30;;;;;;;;;;4986229;28;20042;-65
2022/10/05 05:19:15;;;;;;;10.07;3.22;;;;;;;;;;4986182;28;20062;-65
2022/10/05 05:21:41;;;;;;;7.97;2.97;;;;;;;;;;4985111;28;20062;-66
2022/10/05 05:24:15;;;;;;;8.52;3.38;;;;;;;;;;4985104;28;20653;-66
2022/10/05 05:26:54;;;;;;;7.45;2.67;;;;;;;;;;4987416;28;20078;-66
2022/10/05 05:29:30;;;;;;;9.45;3.65;;;;;;;;;;4991068;28;20046;-65
2022/10/05 05:32:01;;;;;;;7.03;3.30;;;;;;;;;;4988762;28;20047;-65
2022/10/05 05:34:39;;;;;;;8.90;3.30;;;;;;;;;;4992885;28;20390;-65
2022/10/05 05:37:11;;;;;;;11.35;3.42;;;;;;;;;;4990854;28;20385;-65
2022/10/05 05:39:51;;;;;;;9.23;3.55;;;;;;;;;;4988437;28;20046;-65
2022/10/05 05:42:22;;;;;;;7.18;3.80;;;;;;;;;;4988791;28;20050;-65
2022/10/05 05:44:50;;;;;;;9.18;4.22;;;;;;;;;;4987109;28;20042;-65
2022/10/05 05:47:38;;;;;;;9.27;4.10;;;;;;;;;;4987122;28;20068;-65
2022/10/05 05:50:12;;;;;;;8.80;4.05;;;;;;;;;;4987715;28;20398;-65
2022/10/05 05:52:41;;;;;;;11.85;4.82;;;;;;;;;;4988256;28;20081;-66
2022/10/05 05:55:13;;;;;;;9.40;4.30;;;;;;;;;;4986522;28;20070;-66
2022/10/05 05:57:46;;;;;;;13.73;4.80;;;;;;;;;;4988547;28;20426;-66
2022/10/05 06:00:13;;;;;;;7.05;4.63;;;;;;;;;;4986048;28;20042;-65
2022/10/05 06:02:45;;;;;;;9.45;5.40;;;;;;;;;;4987981;28;20046;-64
2022/10/05 06:05:27;;;;;;;6.90;4.20;;;;;;;;;;4987546;28;20047;-65
2022/10/05 06:07:54;;;;;;;11.88;4.03;;;;;;;;;;4985403;28;20410;-64
2022/10/05 06:10:41;;;;;;;11.00;4.95;;;;;;;;;;4935715;28;20134;-65
2022/10/05 06:13:17;;;;;;;11.23;4.90;;;;;;;;;;4969240;28;20054;-65
2022/10/05 06:15:48;;;;;;;11.73;4.72;;;;;;;;;;4967674;28;20051;-65
2022/10/05 06:18:16;;;;;;;8.27;4.20;;;;;;;;;;4968587;28;20042;-64
2022/10/05 06:20:51;;;;;;;9.77;4.60;;;;;;;;;;4968200;28;20046;-65
2022/10/05 06:23:20;;;;;;;7.15;4.75;;;;;;;;;;4967579;28;20096;-65
2022/10/05 06:26:05;;;;;;;6.78;4.60;;;;;;;;;;4968969;28;20054;-64
2022/10/05 06:28:31;;;;;;;6.53;4.25;;;;;;;;;;4967379;28;20398;-65
2022/10/05 06:31:06;;;;;;;6.65;4.05;;;;;;;;;;4968999;28;20384;-65
2022/10/05 06:33:32;;;;;;;12.75;4.03;;;;;;;;;;4948873;28;20479;-65
2022/10/05 06:36:06;;;;;;;9.45;4.47;;;;;;;;;;4952358;28;20042;-64
2022/10/05 06:38:32;;;;;;;;;;;;;;;;;;4957963;28;20340;-65
2022/10/05 06:41:08;;;;;;;8.68;3.90;;;;;;;;;;4954238;28;19922;-64
2022/10/05 06:43:52;;;;;;;6.35;4.00;;;;;;;;;;4970609;28;20060;-65
2022/10/05 06:46:29;;;;;;;8.50;4.40;;;;;;;;;;4969543;28;20050;-64
2022/10/05 06:49:06;;;;;;;8.60;4.00;;;;;;;;;;4969461;28;20402;-64
2022/10/05 06:51:55;;;;;;;8.93;3.80;;;;;;;;;;4970985;28;20328;-64
2022/10/05 06:54:40;;;;;;;8.82;3.80;;;;;;;;;;4971801;28;20050;-64
2022/10/05 06:57:22;;;;;;;5.22;3.15;;;;;;;;;;4969027;28;20038;-64
2022/10/05 06:59:57;;;;;;;5.97;3.17;;;;;;;;;;4971081;28;20047;-65
2022/10/05 07:02:29;;;;;;;7.45;2.85;;;;;;;;;;4953480;28;20085;-65
2022/10/05 07:05:08;;;;;;;7.55;3.20;;;;;;;;;;4955523;28;20420;-65
2022/10/05 07:07:42;;;;;;;6.68;3.50;;;;;;;;;;4955126;28;20069;-65
2022/10/05 07:10:09;;;;;;;6.63;3.15;;;;;;;;;;4971959;28;20039;-65
2022/10/05 07:12:36;;;;;;;7.30;3.42;;;;;;;;;;4955162;28;20103;-65
2022/10/05 07:15:19;;;;;;;5.43;2.88;;;;;;;;;;4971167;28;20043;-64
2022/10/05 07:18:04;;;;;;;6.35;3.15;;;;;;;;;;4954328;28;20051;-65
2022/10/05 07:20:33;;;;;;;8.55;3.05;;;;;;;;;;4971601;28;20066;-64
2022/10/05 07:23:11;;;;;;;6.47;2.13;;;;;;;;;;4971107;28;20038;-65
2022/10/05 07:25:42;;;;;;;6.63;2.42;;;;;;;;;;4952992;28;20051;-65
2022/10/05 07:28:15;;;;;;;6.03;2.75;;;;;;;;;;4971162;28;20044;-64
2022/10/05 07:30:58;;;;;;;9.00;3.20;;;;;;;;;;4971108;28;20047;-65
2022/10/05 07:33:28;;;;;;;4.65;2.40;;;;;;;;;;4969111;28;20054;-64
2022/10/05 07:39:01;;;;;;;4.70;1.90;;;;;;;;;;4968110;28;20054;-64
2022/10/05 07:41:28;;;;;;;5.05;1.92;;;;;;;;;;4970735;28;20616;-64
2022/10/05 07:43:54;;;;;;;5.63;1.92;;;;;;;;;;4954135;28;20061;-65
2022/10/05 07:46:20;;;;;;;6.05;1.75;;;;;;;;;;4970147;28;20073;-65
2022/10/05 07:48:52;;;;;;;4.88;1.52;;;;;;;;;;4952515;28;20053;-65
2022/10/05 07:51:26;;;;;;;7.45;2.05;;;;;;;;;;4970615;28;20042;-64
2022/10/05 07:54:03;;;;;;;3.25;1.60;;;;;;;;;;4969983;28;20152;-64
2022/10/05 07:56:32;;;;;;;4.53;2.20;;;;;;;;;;4953474;28;20365;-65
2022/10/05 07:59:01;;;;;;;4.18;1.80;;;;;;;;;;4955478;28;20042;-65
2022/10/05 08:01:30;;;;;;;4.20;1.83;;;;;;;;;;4967383;28;20230;-64
2022/10/05 08:04:02;;;;;;;3.30;1.33;;;;;;;;;;4957431;28;20051;-64
2022/10/05 08:06:34;;;;;;;6.63;2.13;;;;;;;;;;4969556;28;20499;-65
2022/10/05 08:09:07;;;;;;;8.05;1.63;;;;;;;;;;4979034;28;20285;-64
2022/10/05 08:11:39;;;;;;;4.70;1.65;;;;;;;;;;4985611;28;20047;-65
2022/10/05 08:14:11;;;;;;;3.97;1.25;;;;;;;;;;4986080;28;20065;-65
2022/10/05 08:16:38;;;;;;;4.20;1.50;;;;;;;;;;4986236;28;20074;-65
2022/10/05 08:19:16;;;;;;;4.25;1.65;;;;;;;;;;4985640;28;20038;-65
2022/10/05 08:21:50;;;;;;;3.05;1.35;;;;;;;;;;4984439;28;20137;-65
2022/10/05 08:24:22;;;;;;;5.93;1.20;;;;;;;;;;4986321;28;20042;-65
2022/10/05 08:26:54;;;;;;;4.25;1.98;;;;;;;;;;4986153;28;20513;-65
2022/10/05 08:29:22;;;;;;;3.67;1.10;;;;;;;;;;4984659;28;20506;-65
2022/10/05 08:31:51;;;;;;;5.68;1.48;;;;;;;;;;4987632;28;20099;-65
2022/10/05 08:34:23;;;;;;;2.83;1.25;;;;;;;;;;4985202;28;20095;-65
2022/10/05 08:36:50;;;;;;;3.25;1.15;;;;;;;;;;4985724;28;20066;-65
2022/10/05 08:39:19;;;;;;;39.40;8.43;;;;;;;;;;4985532;28;20034;-65
2022/10/05 08:41:53;;;;;;;3.80;1.20;;;;;;;;;;4983964;28;20121;-65
2022/10/05 08:44:32;;;;;;;6.13;1.75;;;;;;;;;;4984555;28;20047;-64
2022/10/05 08:47:11;;;;;;;3.53;1.33;;;;;;;;;;4982744;28;20050;-65
2022/10/05 08:49:49;;;;;;;2.08;0.90;;;;;;;;;;4983775;28;20061;-65
2022/10/05 08:52:15;;;;;;;5.47;1.38;;;;;;;;;;4985831;28;20058;-65
2022/10/05 08:54:46;;;;;;;4.28;1.35;;;;;;;;;;4985216;28;20512;-64
2022/10/05 08:57:22;;;;;;;7.03;1.38;;;;;;;;;;4984687;28;20042;-65
2022/10/05 08:59:55;;;;;;;6.00;1.55;;;;;;;;;;4984570;28;20462;-64
2022/10/05 09:02:37;;;;;;;3.92;1.27;;;;;;;;;;4984857;28;20039;-65
2022/10/05 09:05:10;;;;;;;4.10;1.50;;;;;;;;;;4985387;28;20081;-65
2022/10/05 09:07:38;;;;;;;4.50;1.42;;;;;;;;;;4982568;28;20117;-65
2022/10/05 09:10:08;;;;;;;4.20;1.35;;;;;;;;;;4982933;28;20126;-65
2022/10/05 09:12:43;;;;;;;5.93;1.80;;;;;;;;;;4986036;28;20049;-65
2022/10/05 09:15:30;;;;;;;2.95;1.48;;;;;;;;;;4978126;28;20050;-65
2022/10/05 09:18:14;;;;;;;3.47;1.38;;;;;;;;;;4983416;28;20125;-65
2022/10/05 09:20:51;;;;;;;6.22;1.90;;;;;;;;;;4985115;28;20042;-65
2022/10/05 09:23:26;;;;;;;4.10;1.65;;;;;;;;;;4983754;28;20513;-65
2022/10/05 09:25:57;;;;;;;5.72;1.75;;;;;;;;;;4984637;28;20039;-65
2022/10/05 09:28:24;;;;;;;4.63;1.90;;;;;;;;;;4983769;28;20504;-65
2022/10/05 09:30:56;;;;;;;5.50;1.80;;;;;;;;;;4985376;28;20133;-64
2022/10/05 09:33:33;;;;;;;6.03;1.77;;;;;;;;;;4985866;28;20140;-65
2022/10/05 09:36:01;;;;;;;4.03;1.80;;;;;;;;;;4986400;28;20055;-65
2022/10/05 09:38:34;;;;;;;4.97;1.65;;;;;;;;;;4984670;28;20070;-64
2022/10/05 09:41:14;;;;;;;8.05;1.60;;;;;;;;;;4985404;28;20118;-64
2022/10/05 09:44:02;;;;;;;8.95;2.08;;;;;;;;;;4982046;28;20042;-65
2022/10/05 09:46:37;;;;;;;15.45;4.03;;;;;;;;;;4985071;28;20092;-65
2022/10/05 09:49:09;;;;;;;9.52;1.50;;;;;;;;;;4986084;28;20050;-65
2022/10/05 09:51:40;;;;;;;6.82;2.13;;;;;;;;;;4997719;28;20134;-65
2022/10/05 09:54:06;;;;;;;6.80;1.80;;;;;;;;;;4985233;28;20043;-65
2022/10/05 09:56:38;;;;;;;3.95;1.58;;;;;;;;;;4986262;28;20582;-65
2022/10/05 09:59:06;;;;;;;6.60;2.10;;;;;;;;;;4988532;28;20425;-65
2022/10/05 10:01:40;;;;;;;6.70;2.08;;;;;;;;;;4988757;28;20075;-64
2022/10/05 10:04:06;;;;;;;5.85;1.98;;;;;;;;;;4987816;28;21211;-65
2022/10/05 10:06:52;;;;;;;4.43;2.17;;;;;;;;;;4989021;28;20347;-64
2022/10/05 10:09:25;;;;;;;5.13;1.77;;;;;;;;;;4987526;28;20522;-65
2022/10/05 10:11:55;;;;;;;3.53;1.45;;;;;;;;;;4988147;28;20145;-65
2022/10/05 10:14:25;;;;;;;5.63;2.00;;;;;;;;;;4987302;28;20519;-65
2022/10/05 10:16:53;;;;;;;6.93;2.42;;;;;;;;;;4989010;28;20046;-64
2022/10/05 10:19:19;;;;;;;5.70;1.80;;;;;;;;;;4988573;28;20034;-64
2022/10/05 10:21:45;;;;;;;11.68;1.67;;;;;;;;;;4988374;28;21840;-64
2022/10/05 10:24:15;;;;;;;6.93;2.10;;;;;;;;;;4989076;28;20364;-64
2022/10/05 10:26:55;;;;;;;6.82;2.05;;;;;;;;;;4988626;28;20061;-64
2022/10/05 10:29:37;;;;;;;6.30;2.30;;;;;;;;;;4988220;28;21644;-64
2022/10/05 10:32:18;;;;;;;4.45;1.95;;;;;;;;;;4988091;28;20066;-65
2022/10/05 10:35:03;;;;;;;6.25;1.90;;;;;;;;;;4987599;28;20046;-65
2022/10/05 10:37:38;;;;;;;9.30;2.50;;;;;;;;;;4988183;28;20051;-65
2022/10/05 10:40:15;;;;;;;5.57;2.40;;;;;;;;;;4987021;28;20057;-64
2022/10/05 10:42:52;;;;;;;5.55;2.35;;;;;;;;;;4987583;28;20049;-65
2022/10/05 10:45:30;;;;;;;5.90;2.45;;;;;;;;;;4987931;28;20046;-65
2022/10/05 10:48:08;;;;;;;5.97;2.28;;;;;;;;;;4986464;28;20063;-64
2022/10/05 10:50:34;;;;;;;7.90;2.55;;;;;;;;;;4987879;28;20414;-65
2022/10/05 10:53:09;;;;;;;6.35;2.42;;;;;;;;;;4985994;28;20062;-65
2022/10/05 10:55:44;;;;;;;7.32;2.72;;;;;;;;;;4985716;28;20068;-65
2022/10/05 10:58:29;;;;;;;7.90;2.83;;;;;;;;;;4986427;28;20043;-64
2022/10/05 11:01:11;;;;;;;4.43;2.17;;;;;;;;;;4988194;28;20488;-64
2022/10/05 11:03:55;;;;;;;6.10;2.10;;;;;;;;;;4987673;28;20429;-64
2022/10/05 11:06:33;;;;;;;6.00;2.72;;;;;;;;;;4986341;28;20057;-64
2022/10/05 11:09:18;;;;;;;6.82;2.20;;;;;;;;;;4987613;28;20050;-64
2022/10/05 11:11:57;;;;;;;6.70;2.80;;;;;;;;;;4988654;28;20050;-64
2022/10/05 11:14:23;;;;;;;13.30;3.53;;;;;;;;;;4988441;28;20072;-64
2022/10/05 11:17:08;;;;;;;9.07;2.88;;;;;;;;;;4985443;28;20493;-65
2022/10/05 11:19:43;;;;;;;5.30;2.55;;;;;;;;;;4986011;28;20042;-65
2022/10/05 11:22:22;;;;;;;7.03;2.53;;;;;;;;;;4988068;28;20052;-64
2022/10/05 11:24:55;;;;;;;5.93;2.40;;;;;;;;;;4985564;28;20042;-65
2022/10/05 11:27:39;;;;;;;4.82;2.65;;;;;;;;;;4986500;28;20122;-65
2022/10/05 11:30:21;;;;;;;5.05;2.60;;;;;;;;;;4985099;28;20042;-65
2022/10/05 11:33:00;;;;;;;7.88;2.40;;;;;;;;;;4986023;28;20061;-65
2022/10/05 11:35:38;;;;;;;6.00;2.30;;;;;;;;;;4984965;28;20513;-65
2022/10/05 11:38:26;;;;;;;8.55;2.08;;;;;;;;;;4984996;28;20108;-64
2022/10/05 11:41:11;;;;;;;5.60;2.28;;;;;;;;;;4984723;28;20584;-65
2022/10/05 11:43:37;;;;;;;4.90;2.33;;;;;;;;;;4984549;28;20045;-65
2022/10/05 11:46:07;;;;;;;5.00;2.30;;;;;;;;;;4985614;28;20049;-65
2022/10/05 11:48:46;;;;;;;4.95;2.35;;;;;;;;;;4987354;28;20517;-65
2022/10/05 11:51:15;;;;;;;6.03;2.20;;;;;;;;;;4987304;28;20030;-64
2022/10/05 11:53:41;;;;;;;6.97;2.58;;;;;;;;;;4985546;28;20042;-65
2022/10/05 11:56:14;;;;;;;4.75;2.33;;;;;;;;;;4986091;28;20545;-65
2022/10/05 11:58:48;;;;;;;5.90;2.42;;;;;;;;;;4983105;28;20406;-65
2022/10/05 12:01:14;;;;;;;5.30;2.55;;;;;;;;;;4985123;28;20042;-65
2022/10/05 12:03:55;;;;;;;9.90;2.50;;;;;;;;;;4984561;28;20394;-65
2022/10/05 12:06:34;;;;;;;7.47;2.35;;;;;;;;;;4986784;28;20169;-65
2022/10/05 12:09:18;;;;;;;6.18;2.42;;;;;;;;;;4985825;28;20127;-65
2022/10/05 12:11:44;;;;;;;;;;;;;;;;;;4986925;28;20046;-66
2022/10/05 12:14:28;;;;;;;6.43;2.13;;;;;;;;;;4983108;28;20068;-65
2022/10/05 12:17:04;;;;;;;4.60;2.25;;;;;;;;;;4985582;28;20049;-65
2022/10/05 12:19:35;;;;;;;6.18;2.20;;;;;;;;;;4985189;28;20050;-65
2022/10/05 12:22:09;;;;;;;4.57;2.30;;;;;;;;;;4984619;28;20058;-65
2022/10/05 12:24:35;;;;;;;6.70;2.30;;;;;;;;;;4986091;28;20261;-65
2022/10/05 12:27:07;;;;;;;4.95;2.42;;;;;;;;;;4985332;28;20436;-65
2022/10/05 12:29:33;;;;;;;3.80;2.05;;;;;;;;;;4984903;28;20042;-76
2022/10/05 12:32:03;;;;;;;5.55;2.00;;;;;;;;;;4984833;28;20133;-65
2022/10/05 12:34:39;;;;;;;4.90;2.10;;;;;;;;;;4984894;28;20049;-65
2022/10/05 12:37:12;;;;;;;5.63;2.30;;;;;;;;;;4985096;28;20494;-65
2022/10/05 12:39:38;;;;;;;5.03;1.95;;;;;;;;;;4986075;28;20585;-66
2022/10/05 12:42:10;;;;;;;4.85;1.90;;;;;;;;;;4985198;28;20145;-65
2022/10/05 12:44:58;;;;;;;6.57;2.08;;;;;;;;;;4985958;28;20050;-65
2022/10/05 12:47:24;;;;;;;4.55;1.90;;;;;;;;;;4985898;28;20053;-65
2022/10/05 12:49:59;;;;;;;6.45;2.17;;;;;;;;;;4984899;28;20050;-65
2022/10/05 12:52:32;;;;;;;5.70;2.10;;;;;;;;;;4985569;28;20057;-65
2022/10/05 12:54:58;;;;;;;3.90;1.83;;;;;;;;;;4985437;28;20553;-66
2022/10/05 12:57:43;;;;;;;4.97;2.33;;;;;;;;;;4984149;28;20060;-65
2022/10/05 13:00:11;;;;;;;4.63;2.20;;;;;;;;;;4987746;28;20053;-65
2022/10/05 13:02:41;;;;;;;6.25;2.65;;;;;;;;;;4985363;28;20401;-65
2022/10/05 13:05:08;;;;;;;4.90;2.90;;;;;;;;;;4986235;28;20038;-66
2022/10/05 13:07:53;;;;;;;6.18;2.88;;;;;;;;;;4985555;28;20478;-66
2022/10/05 13:10:32;;;;;;;5.85;2.83;;;;;;;;;;4983843;28;20792;-66
2022/10/05 13:13:05;;;;;;;6.90;3.08;;;;;;;;;;4986508;28;20056;-64
2022/10/05 13:15:36;;;;;;;7.30;3.38;;;;;;;;;;4986325;28;20050;-64
2022/10/05 13:18:04;;;;;;;5.15;3.10;;;;;;;;;;4983311;28;20057;-65
2022/10/05 13:20:34;;;;;;;8.05;3.72;;;;;;;;;;4985825;28;20122;-64
2022/10/05 13:23:12;;;;;;;5.22;2.88;;;;;;;;;;4982195;28;20061;-64
2022/10/05 13:25:47;;;;;;;5.25;3.30;;;;;;;;;;4982875;28;20228;-64
2022/10/05 13:28:15;;;;;;;7.85;2.97;;;;;;;;;;4982660;28;20407;-65
2022/10/05 13:30:49;;;;;;;7.57;2.88;;;;;;;;;;4984788;28;20394;-65
2022/10/05 13:33:18;;;;;;;6.05;2.95;;;;;;;;;;4989287;28;20148;-64
2022/10/05 13:35:49;;;;;;;9.90;3.53;;;;;;;;;;4989119;28;20046;-65
2022/10/05 13:38:24;;;;;;;7.97;2.90;;;;;;;;;;4988630;28;20458;-65
2022/10/05 13:41:02;;;;;;;5.68;2.60;;;;;;;;;;4988243;28;20486;-64
2022/10/05 13:43:37;;;;;;;6.22;3.75;;;;;;;;;;4986826;28;20141;-65
2022/10/05 13:46:09;;;;;;;5.43;2.83;;;;;;;;;;4986449;28;20043;-65
2022/10/05 13:48:52;;;;;;;6.05;3.20;;;;;;;;;;4987764;28;20034;-64
2022/10/05 13:51:21;;;;;;;8.20;2.92;;;;;;;;;;4986778;28;20057;-65
2022/10/05 13:53:48;;;;;;;5.65;2.90;;;;;;;;;;4987197;28;20523;-64
2022/10/05 13:56:19;;;;;;;7.88;2.70;;;;;;;;;;4986453;28;20177;-64
2022/10/05 13:58:50;;;;;;;5.13;2.67;;;;;;;;;;4986888;28;20030;-64
2022/10/05 14:01:25;;;;;;;15.73;3.03;;;;;;;;;;4987652;28;20054;-64
2022/10/05 14:04:05;;;;;;;6.75;2.60;;;;;;;;;;4987754;28;20042;-62
2022/10/05 14:06:36;;;;;;;6.65;2.75;;;;;;;;;;4987252;28;21792;-62
2022/10/05 14:09:03;;;;;;;12.85;3.10;;;;;;;;;;4986305;28;20039;-63
2022/10/05 14:11:31;;;;;;;6.60;2.63;;;;;;;;;;4986563;28;20505;-64
2022/10/05 14:14:03;;;;;;;6.15;2.80;;;;;;;;;;4985667;28;20133;-64
2022/10/05 14:16:32;;;;;;;4.68;2.53;;;;;;;;;;4986314;28;20046;-63
2022/10/05 14:19:08;;;;;;;6.82;2.38;;;;;;;;;;4987888;28;20381;-64
2022/10/05 14:21:45;;;;;;;8.27;2.58;;;;;;;;;;4985876;28;20047;-64
2022/10/05 14:24:27;;;;;;;7.05;2.42;;;;;;;;;;4988118;28;20168;-64
2022/10/05 14:26:54;;;;;;;7.47;2.95;;;;;;;;;;4986011;28;20113;-63
2022/10/05 14:29:25;;;;;;;6.13;3.03;;;;;;;;;;4988460;28;20050;-63
2022/10/05 14:31:54;;;;;;;4.97;2.28;;;;;;;;;;4989103;28;20401;-64
2022/10/05 14:34:31;;;;;;;9.07;2.88;;;;;;;;;;4988778;28;20057;-63
2022/10/05 14:37:00;;;;;;;6.70;2.63;;;;;;;;;;4986777;28;20042;-64
2022/10/05 14:39:27;;;;;;;9.85;3.22;;;;;;;;;;4987491;28;20133;-64
2022/10/05 14:41:53;;;;;;;8.40;2.67;;;;;;;;;;4985518;28;20502;-64
2022/10/05 14:44:23;;;;;;;6.40;2.80;;;;;;;;;;4986526;28;20074;-64
2022/10/05 14:46:53;;;;;;;10.05;3.05;;;;;;;;;;4988249;28;20057;-64
2022/10/05 14:49:23;;;;;;;8.70;2.85;;;;;;;;;;4986957;28;20042;-64
2022/10/05 14:51:50;;;;;;;9.73;2.60;;;;;;;;;;4988086;28;20406;-64
2022/10/05 14:54:34;;;;;;;5.85;2.55;;;;;;;;;;4986297;28;20042;-64
2022/10/05 14:57:01;;;;;;;;;;;;;;;;;;4988139;28;20046;-63
2022/10/05 14:59:36;;;;;;;12.98;2.65;;;;;;;;;;4987901;28;19964;-64
2022/10/05 15:02:26;;;;;;;10.13;3.00;;;;;;;;;;4985651;28;20038;-64
2022/10/05 15:04:58;;;;;;;10.02;3.08;;;;;;;;;;4986848;28;20050;-64
2022/10/05 15:07:28;;;;;;;8.30;2.95;;;;;;;;;;4988338;28;20089;-64
2022/10/05 15:10:01;;;;;;;10.18;2.78;;;;;;;;;;4985573;28;20062;-64
2022/10/05 15:12:32;;;;;;;5.95;3.03;;;;;;;;;;4987921;28;20739;-64
2022/10/05 15:15:04;;;;;;;7.45;3.00;;;;;;;;;;4986402;28;20097;-66
2022/10/05 15:17:36;;;;;;;6.28;2.80;;;;;;;;;;4985772;28;20083;-65
2022/10/05 15:20:08;;;;;;;9.32;3.10;;;;;;;;;;4986391;28;20157;-65
2022/10/05 15:22:48;;;;;;;7.10;3.15;;;;;;;;;;4982693;28;20061;-65